< < Back
Terminal Aerodrome Forecast


Current Version              Previous Versions:   1  2  3  4  5  6  7  8  9  

Terminal Aerodrome Forecast

209
FTUS42 KGSP 251849 AAB
TAFHKY
TAF AMD
KHKY 251849Z 2519/2618 01004KT 1SM BR OVC002
      TEMPO 2519/2521 1/2SM FG OVC001
     FM252100 VRB03KT 3SM BR SCT010 BKN020
     FM260000 VRB03KT P6SM BKN035 PROB30 2604/2608 2SM TSRA OVC030CB
     FM260800 27003KT 6SM BR BKN018
     FM261300 33006KT P6SM BKN019=

Latest METAR

631
SAUS70 KWBC 260800 RRG
MTRHKY
METAR KHKY 260753Z AUTO 00000KT 7SM OVC002 09/08 A2959 RMK AO2 RAE00
SLP008 P0000 T00890078


USA.gov is the U.S. government's official web portal to all federal, state and local government web resources and services.